Flight Track Log - Related Links

Times and Time Zones

All times are in EDT time to prevent confusion due to time zone crossing. See the N5FG flight status page for this flight to view local times or setup timezone preferences in your user account.

Time Position Orientation Groundspeed Altitude Reporting Facility
EDT Latitude Longitude Course Direction KTS MPH feet Rate Location/Type
Sun 06:15:06 PM 46.4975 -90.8697 145° Southeast 131 151 4,700  Level Minneapolis Center
Sun 06:16:08 PM 46.4592 -90.8369 149° Southeast 132 152 5,500 726 Climbing Minneapolis Center
Sun 06:17:10 PM 46.4239 -90.8072 150° Southeast 139 160 6,200 629 Climbing Minneapolis Center
Sun 06:18:12 PM 46.3933 -90.7742 143° Southeast 140 161 6,800 581 Climbing Minneapolis Center
Sun 06:19:14 PM 46.3619 -90.7411 144° Southeast 140 161 7,400 629 Climbing Minneapolis Center
Sun 06:20:00 PM 46.2871 -90.7103 145° Southeast  Level Estimated
Sun 06:20:16 PM 46.3294 -90.7075 144° Southeast 141 162 8,100  Level Minneapolis Center
Sun 06:21:18 PM 46.2914 -90.6781 152° Southeast 146 168 8,900 435 Climbing Minneapolis Center
Sun 06:22:20 PM 46.2550 -90.6425 146° Southeast 152 175 9,000 432 Climbing Minneapolis Center
Sun 06:23:23 PM 46.2067 -90.5953 146° Southeast 165 190 9,800 576 Climbing Minneapolis Center
Sun 06:24:25 PM 46.1658 -90.5583 148° Southeast 170 196 10,200 435 Climbing Minneapolis Center
Sun 06:25:27 PM 46.1242 -90.5194 147° Southeast 174 200 10,700 397 Climbing Minneapolis Center
Sun 06:26:41 PM 46.0833 -90.4803 146° Southeast 176 203 11,100 176 Climbing Minneapolis Center
Sun 06:27:43 PM 46.0219 -90.4225 147° Southeast 183 211 11,100  Level Minneapolis Center
Sun 06:28:45 PM 45.9744 -90.3800 148° Southeast 190 219 11,100  Level Minneapolis Center
Sun 06:29:48 PM 45.9281 -90.3358 146° Southeast 195 224 11,100  Level Minneapolis Center
Sun 06:30:50 PM 45.8808 -90.2919 147° Southeast 200 230 11,100  Level Minneapolis Center
Sun 06:31:52 PM 45.8336 -90.2478 147° Southeast 202 232 11,100  Level Minneapolis Center
Sun 06:32:54 PM 45.7881 -90.2042 146° Southeast 201 231 11,100  Level Minneapolis Center
Sun 06:33:56 PM 45.7314 -90.1539 148° Southeast 199 229 11,100  Level Minneapolis Center
Sun 06:34:58 PM 45.6839 -90.1097 147° Southeast 202 232 11,100  Level Minneapolis Center
Sun 06:36:00 PM 45.6364 -90.0656 147° Southeast 203 234 11,100  Level Minneapolis Center
Sun 06:37:02 PM 45.5883 -90.0225 148° Southeast 204 235 11,100  Level Minneapolis Center
Sun 06:38:04 PM 45.5411 -89.9797 148° Southeast 203 234 11,100  Level Minneapolis Center
Sun 06:39:06 PM 45.4844 -89.9258 146° Southeast 203 234 11,100 -48 Level Minneapolis Center
Sun 06:40:09 PM 45.4364 -89.8828 148° Southeast 204 235 11,000 -48 Descending Minneapolis Center
Sun 06:41:11 PM 45.3886 -89.8394 147° Southeast 204 235 11,000  Level Minneapolis Center
Sun 06:42:13 PM 45.3417 -89.7964 147° Southeast 202 232 11,000  Level Minneapolis Center
Sun 06:43:14 PM 45.3042 -89.7619 147° Southeast 202 232 11,000  Level Minneapolis Center
Sun 06:44:17 PM 45.2481 -89.7128 148° Southeast 198 228 11,000  Level Minneapolis Center
Sun 06:45:19 PM 45.1919 -89.6628 148° Southeast 198 228 11,000  Level Minneapolis Center
Sun 06:46:21 PM 45.1442 -89.6194 147° Southeast 203 234 11,000  Level Minneapolis Center
Sun 06:47:23 PM 45.0975 -89.5753 146° Southeast 202 232 11,000  Level Minneapolis Center
Sun 06:48:25 PM 45.0453 -89.5333 150° Southeast 204 235 11,000  Level Minneapolis Center
Sun 06:49:27 PM 44.9953 -89.4889 148° Southeast 204 235 11,000  Level Minneapolis Center
Sun 06:50:29 PM 44.9442 -89.4428 147° Southeast 207 238 11,000  Level Minneapolis Center
Sun 06:51:31 PM 44.8944 -89.3978 147° Southeast 206 237 11,000  Level Minneapolis Center
Sun 06:52:33 PM 44.8564 -89.3622 146° Southeast 205 236 11,000  Level Minneapolis Center
Sun 06:53:36 PM 44.7986 -89.3106 148° Southeast 204 235 11,000  Level Minneapolis Center
Sun 06:54:50 PM 44.7472 -89.2664 149° Southeast 208 239 11,000  Level Minneapolis Center
Sun 06:55:52 PM 44.6850 -89.2117 148° Southeast 206 237 11,000  Level Minneapolis Center
Sun 06:56:54 PM 44.6344 -89.1686 149° Southeast 204 235 11,000  Level Minneapolis Center
Sun 06:57:56 PM 44.5872 -89.1272 148° Southeast 206 237 11,000  Level Minneapolis Center
Sun 06:58:58 PM 44.5372 -89.0825 147° Southeast 204 235 11,000  Level Minneapolis Center
Sun 07:00:04 PM 44.4844 -89.0350 147° Southeast 206 237 11,000  Level Minneapolis Center
Sun 07:01:06 PM 44.4364 -88.9900 146° Southeast 207 238 11,000  Level Minneapolis Center
Sun 07:02:08 PM 44.3881 -88.9464 147° Southeast 206 237 11,000  Level Minneapolis Center
Sun 07:03:10 PM 44.3383 -88.9061 150° Southeast 207 238 11,000  Level Minneapolis Center
Sun 07:04:12 PM 44.2811 -88.8547 147° Southeast 209 241 11,000  Level Minneapolis Center
Sun 07:05:14 PM 44.2328 -88.8125 148° Southeast 207 238 11,000  Level Minneapolis Center
Sun 07:06:16 PM 44.1831 -88.7700 148° Southeast 208 239 11,000  Level Minneapolis Center
Sun 07:07:18 PM 44.1350 -88.7283 148° Southeast 205 236 11,000  Level Minneapolis Center
Sun 07:07:59 PM 44.1022 -88.7025 150° Southeast 205 236 11,000  Level Chicago Center
Sun 07:09:01 PM 44.0536 -88.6594 148° Southeast 206 237 11,000  Level Chicago Center
Sun 07:10:03 PM 43.9967 -88.6108 148° Southeast 205 236 11,000  Level Chicago Center
Sun 07:11:05 PM 43.9472 -88.5686 148° Southeast 206 237 11,000  Level Chicago Center
Sun 07:12:07 PM 43.8981 -88.5269 149° Southeast 206 237 11,000  Level Chicago Center
Sun 07:13:09 PM 43.8494 -88.4850 148° Southeast 205 236 11,000  Level Chicago Center
Sun 07:14:12 PM 43.7994 -88.4436 149° Southeast 207 238 11,000  Level Chicago Center
Sun 07:15:14 PM 43.7419 -88.3942 148° Southeast 207 238 11,000  Level Chicago Center
Sun 07:16:16 PM 43.6933 -88.3528 148° Southeast 205 236 11,000  Level Chicago Center
Sun 07:17:18 PM 43.6436 -88.3111 149° Southeast 207 238 11,000  Level Chicago Center
Sun 07:18:20 PM 43.5942 -88.2708 149° Southeast 205 236 11,000  Level Chicago Center
Sun 07:19:22 PM 43.5456 -88.2281 147° Southeast 206 237 11,000  Level Chicago Center
Sun 07:20:24 PM 43.4953 -88.1858 149° Southeast 210 242 11,000  Level Chicago Center
Sun 07:21:26 PM 43.4444 -88.1428 148° Southeast 212 244 11,000  Level Chicago Center
Sun 07:22:28 PM 43.3822 -88.1092 159° South 206 237 11,000  Level Chicago Center
Sun 07:23:30 PM 43.3258 -88.0953 170° South 204 235 11,000 -97 Level Chicago Center
Sun 07:24:32 PM 43.2697 -88.0858 173° South 202 232 10,800 -384 Descending Chicago Center
Sun 07:25:35 PM 43.2097 -88.0719 170° South 215 247 10,200 -336 Descending Chicago Center
Sun 07:26:37 PM 43.1497 -88.0567 169° South 218 251 10,100 -97 Descending Chicago Center
Sun 07:27:39 PM 43.0956 -88.0372 165° South 206 237 10,000  Descending Chicago Center
Sun 07:28:41 PM 43.0389 -87.9914 149° Southeast 201 231 10,100 -145 Climbing Chicago Center
Sun 07:29:43 PM 42.9919 -87.9522 149° Southeast 199 229 9,700 -484 Descending Chicago Center
Sun 07:30:45 PM 42.9389 -87.9108 150° Southeast 215 247 9,100 -629 Descending Chicago Center
Sun 07:31:47 PM 42.8867 -87.8719 151° Southeast 215 247 8,400 -532 Descending Chicago Center
Sun 07:32:49 PM 42.8322 -87.8322 152° Southeast 220 253 8,000 -629 Descending Chicago Center
Sun 07:33:51 PM 42.7756 -87.7875 150° Southeast 204 235 7,100 -919 Descending Chicago Center
Sun 07:34:53 PM 42.7192 -87.7783 173° South 207 238 6,100 -919 Descending Chicago Center
Sun 07:35:55 PM 42.6647 -87.7908 190° South 199 229 5,200 -871 Descending Chicago Center
Sun 07:36:57 PM 42.6119 -87.8086 194° South 196 226 4,300 -581 Descending Chicago Center
Sun 07:37:59 PM 42.5611 -87.8258 194° South 188 216 4,000 -144 Descending Chicago Center
Sun 07:39:02 PM 42.5286 -87.8556 214° Southwest 146 168 4,000  Level Chicago Center
Sun 07:40:04 PM 42.4906 -87.8994 220° Southwest 152 175 4,000 -339 Level Chicago Center
Sun 07:41:06 PM 42.4536 -87.9367 217° Southwest 163 188 3,300 -629 Descending Chicago Center
Sun 07:42:08 PM 42.4153 -87.9467 191° South 164 189 2,700 -677 Descending Chicago Center
Sun 07:43:10 PM 42.3950 -87.9094 126° Southeast 151 174 1,900 -774 Descending Chicago Center
Sun 07:45:00 PM 42.4167 -87.8667 71° East  Level FlightAware Approximate

Login

Don't have an account? Register now (free) for customized features, flight alerts, and more!